If you wish to contribute or participate in the discussions about articles you are invited to join SKYbrary as a registered user

 Actions

RAF Northholt

From SKYbrary Wiki

EGWU
Airport
ICAO: EGWU – IATA: NHT
Summary
Name RAF Northholt
Region Europe
Territory United Kingdom GB.gif
Location Northolt, Middlesex, England
Serving Northolt
Elevation 37.795 m <br />124 ft <br />124 ft37.795 m <br />
Coordinates 51° 33' 6.00" N, 0° 25' 6.00" W
Runways
Designator Length Width Surface ROPS
7/25 1690 m5,544.619 ft <br /> 46 m150.919 ft <br /> ASP yes/yes


METAR
Observation EGWU 271020Z 27016KT 9999 SCT028 15/10 Q1008 NOSIG
Station Northolt
Date/Time 27 September 2021 10:20:00
Wind direction 270°
Wind speed 16 kts
Lowest cloud amount scattered clouds
Temperature 15°C
Dew point 10°C
Humidity 72%
QNH 1008 hPa
Weather condition n/a

RAF Northholt

ICAO: EGWU IATA: NHT

Description

RAF Northolt is a military airport available to non scheduled civil traffic by prior arrangement.

Climatology

Temperate Marine climate/Oceanic climate (Köppen climate classification Cfb). Moderately cool summer and comparatively warm winter with a temperature range of only 14°C57.2 °F <br />287.15 K <br />516.87 °R <br />. Prevailing south-westerly winds from the Atlantic Ocean.

Maps

Terrain

Loading map...

Airport Layout

Loading map...